createdAt,value
2022-09-21T00:02:07.682Z,8.02
2022-09-21T00:04:37.261Z,8.01
2022-09-21T00:07:07.044Z,8.07
2022-09-21T00:09:36.590Z,8.03
2022-09-21T00:12:06.344Z,8.01
2022-09-21T00:14:35.901Z,7.97
2022-09-21T00:17:08.059Z,7.98
2022-09-21T00:19:37.931Z,7.95
2022-09-21T00:22:07.663Z,7.94
2022-09-21T00:24:37.545Z,7.85
2022-09-21T00:27:07.463Z,7.82
2022-09-21T00:29:37.337Z,7.82
2022-09-21T00:32:09.519Z,7.84
2022-09-21T00:34:39.441Z,7.81
2022-09-21T00:37:09.294Z,7.81
2022-09-21T00:39:38.896Z,7.78
2022-09-21T00:42:11.665Z,7.73
2022-09-21T00:44:41.299Z,7.70
2022-09-21T00:47:16.088Z,7.70
2022-09-21T00:49:46.580Z,7.69
2022-09-21T00:52:17.480Z,7.72
2022-09-21T00:54:49.358Z,7.70
2022-09-21T00:57:20.831Z,7.65
2022-09-21T00:59:52.172Z,7.68
2022-09-21T01:02:25.250Z,7.64
2022-09-21T01:04:56.625Z,7.58
2022-09-21T01:07:29.474Z,7.60
2022-09-21T01:10:02.425Z,7.60
2022-09-21T01:12:45.503Z,7.44
2022-09-21T01:15:22.707Z,7.37
2022-09-21T01:18:03.564Z,7.37
2022-09-21T01:20:58.189Z,7.35
2022-09-21T01:23:38.262Z,7.31
2022-09-21T01:26:12.619Z,7.30
2022-09-21T01:29:00.993Z,7.26
2022-09-21T01:31:34.795Z,7.25
2022-09-21T01:34:08.332Z,7.23
2022-09-21T01:36:38.413Z,7.20
2022-09-21T01:39:11.201Z,7.20
2022-09-21T01:41:42.026Z,7.17
2022-09-21T01:44:17.584Z,7.14
2022-09-21T01:46:49.629Z,7.12
2022-09-21T01:49:30.416Z,7.10
2022-09-21T01:52:01.614Z,7.12
2022-09-21T01:54:35.382Z,7.09
2022-09-21T01:57:10.171Z,7.08
2022-09-21T01:59:50.253Z,7.05
2022-09-21T02:02:22.435Z,7.05
2022-09-21T02:04:52.240Z,7.03
2022-09-21T02:07:22.060Z,7.02
2022-09-21T02:09:51.648Z,6.99
2022-09-21T02:12:21.187Z,6.98
2022-09-21T02:14:56.176Z,6.98
2022-09-21T02:17:36.326Z,6.98
2022-09-21T02:23:44.759Z,6.91
2022-09-21T02:26:17.372Z,6.90
2022-09-21T02:28:53.062Z,6.85
2022-09-21T02:31:33.449Z,6.82
2022-09-21T02:34:07.947Z,6.83
2022-09-21T02:36:45.619Z,6.81
2022-09-21T02:39:19.701Z,6.79
2022-09-21T02:41:56.846Z,6.77
2022-09-21T02:44:33.749Z,6.73
2022-09-21T02:47:09.524Z,6.71
2022-09-21T02:49:41.365Z,6.68
2022-09-21T02:52:14.393Z,6.67
2022-09-21T02:54:47.222Z,6.67
2022-09-21T02:57:17.676Z,6.66
2022-09-21T02:59:47.339Z,6.64
2022-09-21T03:02:19.545Z,6.61
2022-09-21T03:04:50.602Z,6.57
2022-09-21T03:07:20.457Z,6.54
2022-09-21T03:09:49.980Z,6.51
2022-09-21T03:12:19.895Z,6.49
2022-09-21T03:14:51.282Z,6.48
2022-09-21T03:17:24.578Z,6.45
2022-09-21T03:19:55.195Z,6.42
2022-09-21T03:22:25.240Z,6.38
2022-09-21T03:24:57.576Z,6.38
2022-09-21T03:27:27.994Z,6.37
2022-09-21T03:30:01.335Z,6.37
2022-09-21T03:32:34.260Z,6.35
2022-09-21T03:35:04.945Z,6.32
2022-09-21T03:37:37.019Z,6.30
2022-09-21T03:40:11.630Z,6.29
2022-09-21T03:42:41.358Z,6.26
2022-09-21T03:45:12.856Z,6.26
2022-09-21T03:47:45.028Z,6.25
2022-09-21T03:50:14.881Z,6.23
2022-09-21T03:52:44.615Z,6.19
2022-09-21T03:55:14.252Z,6.15
2022-09-21T03:57:43.808Z,6.13
2022-09-21T04:00:14.403Z,6.11
2022-09-21T04:02:46.689Z,6.09
2022-09-21T04:05:17.998Z,6.09
2022-09-21T04:07:48.522Z,6.08
2022-09-21T04:10:19.862Z,6.06
2022-09-21T04:12:50.169Z,6.04
2022-09-21T04:15:21.840Z,6.04
2022-09-21T04:17:55.704Z,6.00
2022-09-21T04:20:25.490Z,5.97
2022-09-21T04:22:55.064Z,5.96
2022-09-21T04:25:24.684Z,5.97
2022-09-21T04:27:54.518Z,5.96
2022-09-21T04:30:24.026Z,5.97
2022-09-21T04:32:56.140Z,5.96
2022-09-21T04:35:25.691Z,5.92
2022-09-21T04:37:57.636Z,5.87
2022-09-21T04:40:28.343Z,5.87
2022-09-21T04:42:58.634Z,5.89
2022-09-21T04:45:28.247Z,5.89
2022-09-21T04:48:00.504Z,5.87
2022-09-21T04:50:30.338Z,5.86
2022-09-21T04:53:06.000Z,5.86
2022-09-21T04:55:35.580Z,5.85
2022-09-21T04:58:05.137Z,5.84
2022-09-21T05:00:34.689Z,5.81
2022-09-21T05:03:06.884Z,5.80
2022-09-21T05:05:36.463Z,5.78
2022-09-21T05:08:08.641Z,5.75
2022-09-21T05:10:36.007Z,5.72
2022-09-21T05:13:05.620Z,5.70
2022-09-21T05:15:35.155Z,5.70
2022-09-21T05:18:07.516Z,5.68
2022-09-21T05:20:37.006Z,5.68
2022-09-21T05:23:06.532Z,5.64
2022-09-21T05:25:36.220Z,5.63
2022-09-21T05:28:06.680Z,5.63
2022-09-21T05:30:37.014Z,5.60
2022-09-21T05:33:11.818Z,5.58
2022-09-21T05:35:44.963Z,5.58
2022-09-21T05:38:16.732Z,5.58
2022-09-21T05:40:47.578Z,5.57
2022-09-21T05:43:17.842Z,5.58
2022-09-21T05:45:49.013Z,5.59
2022-09-21T05:48:23.940Z,5.57
2022-09-21T05:50:59.755Z,5.56
2022-09-21T05:53:52.213Z,5.56
2022-09-21T05:56:37.592Z,5.57
2022-09-21T05:59:19.006Z,5.58
2022-09-21T06:01:58.899Z,5.59
2022-09-21T06:04:31.907Z,5.59
2022-09-21T06:07:01.524Z,5.60
2022-09-21T06:09:31.112Z,5.60
2022-09-21T06:12:00.780Z,5.60
2022-09-21T06:14:30.334Z,5.60
2022-09-21T06:16:59.925Z,5.59
2022-09-21T06:19:32.307Z,5.60
2022-09-21T06:22:01.859Z,5.63
2022-09-21T06:24:31.437Z,5.64
2022-09-21T06:27:01.034Z,5.65
2022-09-21T06:29:30.630Z,5.64
2022-09-21T06:32:00.329Z,5.69
2022-09-21T06:34:32.932Z,5.73
2022-09-21T06:37:03.215Z,5.75
2022-09-21T06:39:32.730Z,5.75
2022-09-21T06:42:02.355Z,5.76
2022-09-21T06:44:32.156Z,5.79
2022-09-21T06:47:01.828Z,5.78
2022-09-21T06:49:33.999Z,5.77
2022-09-21T06:52:04.428Z,5.80
2022-09-21T06:54:34.003Z,5.82
2022-09-21T06:57:03.547Z,5.82
2022-09-21T06:59:33.126Z,5.84
2022-09-21T07:02:03.156Z,5.86
2022-09-21T07:04:35.446Z,5.87
2022-09-21T07:07:05.333Z,5.91
2022-09-21T07:12:25.334Z,5.96
2022-09-21T07:14:54.856Z,6.00
2022-09-21T07:17:24.411Z,6.02
2022-09-21T07:19:56.542Z,6.04
2022-09-21T07:22:26.212Z,6.06
2022-09-21T07:24:55.766Z,6.10
2022-09-21T07:27:25.412Z,6.12
2022-09-21T07:29:55.143Z,6.12
2022-09-21T07:32:24.978Z,6.16
2022-09-21T07:34:58.117Z,6.26
2022-09-21T07:37:28.106Z,6.36
2022-09-21T07:39:57.682Z,6.34
2022-09-21T07:42:28.175Z,6.41
2022-09-21T07:45:04.014Z,6.51
2022-09-21T07:47:34.092Z,6.62
2022-09-21T07:50:06.778Z,6.66
2022-09-21T07:52:36.327Z,6.76
2022-09-21T07:55:06.241Z,6.83
2022-09-21T07:57:48.250Z,6.90
2022-09-21T08:00:18.259Z,7.02
2022-09-21T08:02:47.991Z,7.07
2022-09-21T08:05:20.440Z,7.13
2022-09-21T08:07:49.994Z,7.24
2022-09-21T08:10:19.640Z,7.33
2022-09-21T08:12:49.201Z,7.45
2022-09-21T08:15:43.969Z,7.57
2022-09-21T08:18:09.650Z,7.67
2022-09-21T08:20:42.313Z,7.81
2022-09-21T08:23:11.896Z,7.93
2022-09-21T08:25:41.516Z,8.06
2022-09-21T08:28:11.192Z,8.18
2022-09-21T08:30:40.890Z,8.39
2022-09-21T08:33:10.571Z,8.54
2022-09-21T08:35:42.802Z,8.72
2022-09-21T08:38:12.312Z,8.89
2022-09-21T08:44:28.410Z,9.23
2022-09-21T08:47:05.000Z,9.35
2022-09-21T08:49:36.811Z,9.51
2022-09-21T08:52:14.555Z,9.67
2022-09-21T08:54:47.499Z,9.82
2022-09-21T08:57:17.503Z,9.98
2022-09-21T08:59:48.549Z,10.13
2022-09-21T09:02:44.350Z,10.29
2022-09-21T09:05:33.223Z,10.47
2022-09-21T09:08:26.460Z,10.63
2022-09-21T09:11:02.824Z,10.73
2022-09-21T09:13:49.309Z,10.83
2022-09-21T09:16:22.145Z,10.95
2022-09-21T09:18:54.881Z,11.12
2022-09-21T09:21:31.887Z,11.25
2022-09-21T09:24:07.374Z,11.36
2022-09-21T09:26:42.743Z,11.42
2022-09-21T09:29:19.631Z,11.59
2022-09-21T09:31:49.395Z,11.71
2022-09-21T09:34:22.811Z,11.87
2022-09-21T09:36:59.139Z,11.98
2022-09-21T09:39:32.704Z,12.15
2022-09-21T09:42:13.140Z,12.33
2022-09-21T09:45:05.448Z,12.52
2022-09-21T09:47:44.021Z,12.67
2022-09-21T09:50:15.291Z,12.84
2022-09-21T09:52:46.449Z,13.01
2022-09-21T09:55:21.951Z,13.15
2022-09-21T09:57:52.024Z,13.29
2022-09-21T10:00:23.434Z,13.44
2022-09-21T10:02:55.247Z,13.55
2022-09-21T10:05:26.744Z,13.70
2022-09-21T10:07:56.295Z,13.82
2022-09-21T10:10:40.170Z,13.97
2022-09-21T10:13:15.473Z,14.10
2022-09-21T10:15:47.413Z,14.13
2022-09-21T10:18:20.824Z,14.22
2022-09-21T10:21:01.831Z,14.38
2022-09-21T10:23:32.501Z,14.50
2022-09-21T10:26:07.285Z,14.64
2022-09-21T10:28:37.678Z,14.75
2022-09-21T10:31:13.920Z,14.72
2022-09-21T10:33:52.680Z,14.66
2022-09-21T10:36:33.254Z,14.60
2022-09-21T10:39:30.547Z,14.54
2022-09-21T10:42:06.712Z,14.53
2022-09-21T10:44:40.630Z,14.49
2022-09-21T10:47:22.399Z,14.47
2022-09-21T10:49:54.348Z,14.49
2022-09-21T10:52:25.834Z,14.44
2022-09-21T10:54:58.334Z,14.42
2022-09-21T10:57:32.611Z,14.41
2022-09-21T11:00:15.295Z,14.46
2022-09-21T11:02:46.625Z,14.61
2022-09-21T11:05:18.787Z,14.78
2022-09-21T11:07:51.964Z,14.81
2022-09-21T11:10:25.908Z,14.94
2022-09-21T11:13:07.891Z,15.02
2022-09-21T11:15:45.816Z,15.02
2022-09-21T11:18:20.837Z,14.95
2022-09-21T11:20:52.682Z,14.87
2022-09-21T11:23:40.743Z,14.86
2022-09-21T11:26:18.574Z,14.81
2022-09-21T11:28:55.708Z,14.77
2022-09-21T11:31:44.735Z,14.77
2022-09-21T11:34:26.044Z,14.79
2022-09-21T11:37:02.404Z,14.75
2022-09-21T11:39:42.947Z,14.78
2022-09-21T11:42:21.292Z,14.78
2022-09-21T11:44:56.440Z,14.79
2022-09-21T11:47:48.875Z,14.80
2022-09-21T11:50:40.166Z,14.80
2022-09-21T11:53:26.335Z,14.83
2022-09-21T11:56:22.777Z,14.85
2022-09-21T11:59:00.388Z,14.88
2022-09-21T12:01:48.876Z,14.92
2022-09-21T12:04:42.239Z,15.01
2022-09-21T12:07:33.572Z,15.17
2022-09-21T12:10:34.505Z,15.29
2022-09-21T12:13:10.838Z,15.47
2022-09-21T12:15:47.822Z,15.57
2022-09-21T12:21:03.426Z,15.79
2022-09-21T12:23:44.950Z,15.91
2022-09-21T12:26:28.943Z,16.00
2022-09-21T12:29:02.741Z,16.09
2022-09-21T12:31:36.171Z,16.21
2022-09-21T12:34:14.758Z,16.32
2022-09-21T12:36:47.641Z,16.35
2022-09-21T12:39:22.089Z,16.34
2022-09-21T12:41:55.605Z,16.35
2022-09-21T12:44:29.049Z,16.40
2022-09-21T12:47:09.502Z,16.38
2022-09-21T12:49:45.098Z,16.32
2022-09-21T12:52:24.356Z,16.25
2022-09-21T12:54:59.820Z,16.22
2022-09-21T12:58:10.780Z,16.18
2022-09-21T13:00:25.450Z,16.13
2022-09-21T13:03:08.370Z,16.11
2022-09-21T13:05:53.141Z,16.07
2022-09-21T13:08:28.413Z,16.02
2022-09-21T13:11:04.813Z,15.98
2022-09-21T13:13:37.763Z,15.94
2022-09-21T13:16:08.851Z,15.93
2022-09-21T13:18:40.472Z,15.92
2022-09-21T13:21:23.566Z,15.91
2022-09-21T13:23:58.817Z,15.92
2022-09-21T13:26:38.488Z,15.93
2022-09-21T13:29:25.085Z,15.97
2022-09-21T13:32:02.029Z,16.09
2022-09-21T13:34:34.641Z,16.15
2022-09-21T13:37:34.131Z,16.21
2022-09-21T13:40:45.230Z,16.35
2022-09-21T13:43:59.707Z,16.43
2022-09-21T13:46:59.432Z,16.48
2022-09-21T13:49:36.504Z,16.50
2022-09-21T13:52:07.963Z,16.54
2022-09-21T13:54:40.156Z,16.63
2022-09-21T13:57:19.497Z,16.60
2022-09-21T13:59:52.604Z,16.67
2022-09-21T14:02:32.873Z,16.74
2022-09-21T14:05:07.688Z,16.81
2022-09-21T14:10:32.324Z,16.89
2022-09-21T14:13:02.998Z,16.94
2022-09-21T14:15:39.825Z,17.00
2022-09-21T14:18:23.283Z,17.02
2022-09-21T14:21:11.637Z,16.94
2022-09-21T14:23:41.862Z,16.93
2022-09-21T14:26:35.659Z,16.91
2022-09-21T14:29:11.136Z,16.91
2022-09-21T14:31:41.668Z,16.92
2022-09-21T14:34:23.322Z,16.91
2022-09-21T14:36:57.459Z,16.91
2022-09-21T14:39:29.403Z,16.91
2022-09-21T14:42:03.385Z,16.88
2022-09-21T14:44:34.358Z,16.83
2022-09-21T14:47:15.405Z,16.80
2022-09-21T14:50:10.625Z,16.75
2022-09-21T14:52:56.134Z,16.73
2022-09-21T14:55:29.292Z,16.70
2022-09-21T14:58:11.960Z,16.66
2022-09-21T15:00:43.272Z,16.66
2022-09-21T15:03:39.352Z,16.63
2022-09-21T15:06:31.263Z,16.60
2022-09-21T15:09:29.963Z,16.57
2022-09-21T15:12:02.950Z,16.56
2022-09-21T15:14:37.374Z,16.53
2022-09-21T15:17:24.599Z,16.51
2022-09-21T15:19:54.319Z,16.49
2022-09-21T15:22:27.596Z,16.45
2022-09-21T15:24:59.119Z,16.43
2022-09-21T15:27:33.376Z,16.40
2022-09-21T15:30:05.985Z,16.40
2022-09-21T15:32:40.099Z,16.39
2022-09-21T15:35:19.335Z,16.39
2022-09-21T15:37:52.315Z,16.35
2022-09-21T15:40:24.504Z,16.32
2022-09-21T15:43:05.742Z,16.23
2022-09-21T15:45:38.087Z,16.20
2022-09-21T15:48:13.232Z,16.13
2022-09-21T15:50:43.583Z,16.09
2022-09-21T15:53:23.258Z,16.05
2022-09-21T15:55:53.027Z,15.99
2022-09-21T15:58:41.881Z,15.94
2022-09-21T16:01:13.913Z,15.87
2022-09-21T16:03:44.277Z,15.86
2022-09-21T16:06:26.437Z,15.80
2022-09-21T16:08:58.659Z,15.73
2022-09-21T16:11:38.600Z,15.66
2022-09-21T16:14:25.707Z,15.61
2022-09-21T16:17:11.463Z,15.57
2022-09-21T16:19:44.931Z,15.55
2022-09-21T16:22:15.917Z,15.51
2022-09-21T16:24:54.228Z,15.46
2022-09-21T16:27:26.212Z,15.41
2022-09-21T16:29:57.303Z,15.37
2022-09-21T16:32:32.824Z,15.30
2022-09-21T16:35:27.936Z,15.25
2022-09-21T16:37:59.081Z,15.15
2022-09-21T16:40:31.955Z,15.08
2022-09-21T16:43:03.456Z,15.02
2022-09-21T16:45:34.079Z,14.91
2022-09-21T16:48:07.864Z,14.83
2022-09-21T16:50:38.277Z,14.71
2022-09-21T16:53:08.316Z,14.61
2022-09-21T16:55:40.437Z,14.55
2022-09-21T16:58:11.588Z,14.47
2022-09-21T17:00:43.732Z,14.43
2022-09-21T17:03:14.261Z,14.35
2022-09-21T17:05:44.398Z,14.23
2022-09-21T17:08:16.448Z,14.16
2022-09-21T17:10:48.895Z,14.11
2022-09-21T17:13:19.358Z,14.06
2022-09-21T17:15:50.453Z,14.00
2022-09-21T17:18:19.995Z,13.96
2022-09-21T17:20:49.835Z,13.87
2022-09-21T17:23:20.437Z,13.80
2022-09-21T17:25:52.646Z,13.73
2022-09-21T17:28:27.803Z,13.66
2022-09-21T17:30:57.597Z,13.60
2022-09-21T17:33:27.340Z,13.54
2022-09-21T17:35:56.981Z,13.46
2022-09-21T17:38:26.560Z,13.39
2022-09-21T17:40:58.882Z,13.36
2022-09-21T17:43:38.206Z,13.30
2022-09-21T17:46:13.208Z,13.24
2022-09-21T17:48:43.849Z,13.13
2022-09-21T17:51:34.565Z,13.06
2022-09-21T17:54:02.308Z,12.99
2022-09-21T17:56:41.502Z,12.92
2022-09-21T17:59:20.739Z,12.88
2022-09-21T18:01:50.646Z,12.86
2022-09-21T18:04:20.796Z,12.78
2022-09-21T18:06:51.141Z,12.73
2022-09-21T18:09:21.430Z,12.66
2022-09-21T18:12:43.219Z,12.54
2022-09-21T18:15:19.836Z,12.44
2022-09-21T18:17:58.463Z,12.38
2022-09-21T18:20:39.389Z,12.28
2022-09-21T18:23:17.805Z,12.21
2022-09-21T18:25:51.423Z,12.17
2022-09-21T18:28:26.915Z,12.10
2022-09-21T18:31:02.896Z,12.04
2022-09-21T18:33:42.364Z,12.01
2022-09-21T18:36:21.760Z,11.96
2022-09-21T18:38:59.823Z,11.92
2022-09-21T18:41:35.504Z,11.86
2022-09-21T18:44:16.131Z,11.78
2022-09-21T18:46:55.073Z,11.72
2022-09-21T18:49:41.813Z,11.66
2022-09-21T18:52:21.254Z,11.63
2022-09-21T18:54:51.081Z,11.54
2022-09-21T18:57:23.386Z,11.48
2022-09-21T18:59:56.294Z,11.43
2022-09-21T19:02:27.179Z,11.39
2022-09-21T19:04:58.017Z,11.33
2022-09-21T19:07:35.278Z,11.30
2022-09-21T19:10:15.116Z,11.24
2022-09-21T19:13:02.208Z,11.18
2022-09-21T19:15:59.698Z,11.11
2022-09-21T19:18:36.426Z,11.07
2022-09-21T19:21:16.099Z,11.00
2022-09-21T19:24:03.210Z,10.95
2022-09-21T19:26:36.513Z,10.90
2022-09-21T19:29:31.174Z,10.83
2022-09-21T19:32:03.766Z,10.77
2022-09-21T19:34:33.734Z,10.72
2022-09-21T19:37:07.642Z,10.68
2022-09-21T19:39:38.360Z,10.67
2022-09-21T19:42:17.724Z,10.59
2022-09-21T19:44:56.681Z,10.53
2022-09-21T19:47:32.034Z,10.50
2022-09-21T19:50:16.702Z,10.44
2022-09-21T19:52:47.032Z,10.41
2022-09-21T19:58:37.130Z,10.34
2022-09-21T20:01:07.240Z,10.30
2022-09-21T20:03:43.123Z,10.25
2022-09-21T20:06:18.309Z,10.22
2022-09-21T20:08:52.499Z,10.19
2022-09-21T20:11:37.523Z,10.15
2022-09-21T20:14:23.509Z,10.08
2022-09-21T20:16:55.226Z,10.05
2022-09-21T20:19:36.554Z,10.03
2022-09-21T20:22:11.519Z,10.00
2022-09-21T20:24:47.750Z,9.98
2022-09-21T20:27:25.281Z,9.92
2022-09-21T20:29:54.831Z,9.89
2022-09-21T20:32:25.180Z,9.87
2022-09-21T20:34:57.446Z,9.82
2022-09-21T20:37:27.462Z,9.78
2022-09-21T20:39:57.257Z,9.74
2022-09-21T20:42:27.927Z,9.72
2022-09-21T20:44:57.460Z,9.68
2022-09-21T20:47:28.971Z,9.58
2022-09-21T20:50:01.152Z,9.51
2022-09-21T20:52:30.727Z,9.46
2022-09-21T20:55:00.918Z,9.44
2022-09-21T20:57:31.748Z,9.40
2022-09-21T21:00:01.300Z,9.37
2022-09-21T21:02:31.004Z,9.36
2022-09-21T21:05:03.280Z,9.33
2022-09-21T21:07:32.819Z,9.31
2022-09-21T21:10:02.592Z,9.26
2022-09-21T21:12:32.398Z,9.25
2022-09-21T21:15:01.980Z,9.20
2022-09-21T21:17:31.598Z,9.23
2022-09-21T21:20:04.026Z,9.22
2022-09-21T21:22:33.576Z,9.18
2022-09-21T21:25:03.142Z,9.16
2022-09-21T21:27:33.115Z,9.12
2022-09-21T21:30:02.653Z,9.07
2022-09-21T21:32:32.575Z,9.04
2022-09-21T21:35:04.988Z,8.99
2022-09-21T21:37:34.558Z,8.95
2022-09-21T21:40:04.758Z,8.93
2022-09-21T21:42:34.523Z,8.91
2022-09-21T21:45:04.172Z,8.87
2022-09-21T21:47:41.447Z,8.82
2022-09-21T21:50:14.042Z,8.79
2022-09-21T21:52:45.142Z,8.77
2022-09-21T21:55:14.805Z,8.75
2022-09-21T21:57:44.356Z,8.73
2022-09-21T22:00:15.664Z,8.71
2022-09-21T22:02:46.026Z,8.67
2022-09-21T22:05:18.329Z,8.63
2022-09-21T22:07:48.980Z,8.61
2022-09-21T22:10:18.889Z,8.60
2022-09-21T22:12:48.495Z,8.56
2022-09-21T22:15:18.533Z,8.54
2022-09-21T22:17:48.084Z,8.49
2022-09-21T22:20:20.268Z,8.47
2022-09-21T22:22:49.808Z,8.46
2022-09-21T22:25:19.391Z,8.40
2022-09-21T22:27:48.944Z,8.38
2022-09-21T22:30:18.783Z,8.31
2022-09-21T22:32:48.325Z,8.30
2022-09-21T22:35:20.615Z,8.31
2022-09-21T22:37:52.661Z,8.26
2022-09-21T22:40:22.574Z,8.21
2022-09-21T22:42:52.196Z,8.18
2022-09-21T22:45:22.784Z,8.17
2022-09-21T22:47:52.423Z,8.16
2022-09-21T22:50:24.498Z,8.14
2022-09-21T22:52:53.984Z,8.11
2022-09-21T22:55:23.572Z,8.06
2022-09-21T22:57:53.132Z,8.02
2022-09-21T23:00:22.928Z,8.01
2022-09-21T23:02:56.633Z,7.99
2022-09-21T23:05:29.659Z,7.98
2022-09-21T23:07:59.593Z,7.95
2022-09-21T23:10:29.666Z,7.92
2022-09-21T23:12:59.168Z,7.91
2022-09-21T23:15:28.779Z,7.88
2022-09-21T23:17:58.287Z,7.86
2022-09-21T23:20:30.776Z,7.79
2022-09-21T23:23:00.351Z,7.76
2022-09-21T23:25:30.371Z,7.77
2022-09-21T23:28:00.517Z,7.74
2022-09-21T23:30:30.040Z,7.70
2022-09-21T23:32:59.527Z,7.68
2022-09-21T23:35:31.934Z,7.63
2022-09-21T23:38:02.159Z,7.58
2022-09-21T23:40:31.938Z,7.56
2022-09-21T23:43:01.576Z,7.56
2022-09-21T23:45:31.126Z,7.54
2022-09-21T23:48:00.652Z,7.52
2022-09-21T23:50:32.786Z,7.49
2022-09-21T23:53:03.295Z,7.45
2022-09-21T23:55:33.542Z,7.43
2022-09-21T23:58:03.048Z,7.41
